Time;durP1;ratioP1;P1;durP2;ratioP2;P2;SDS_P1;SDS_P2;PMS_P1;PMS_P2;Temp;Humidity;BMP_temperature;BMP_pressure;BME280_temperature;BME280_humidity;BME280_pressure;Samples;Min_cycle;Max_cycle;Signal;HPM_P1;HPM_P2
2023/04/20 00:01:10;;;;;;;5.53;1.80;;;;;;;12.48;34.00;102171.06;5122827;28;20040;-67
2023/04/20 00:03:38;;;;;;;4.13;2.00;;;;;;;12.45;33.99;102166.91;5113732;28;20047;-67
2023/04/20 00:06:06;;;;;;;4.90;2.08;;;;;;;12.44;33.57;102159.00;5116878;28;20055;-67
2023/04/20 00:08:34;;;;;;;9.52;3.00;;;;;;;12.42;33.40;102161.91;5124600;28;20047;-67
2023/04/20 00:11:02;;;;;;;7.05;2.10;;;;;;;12.41;34.27;102164.81;5120817;28;20058;-67
2023/04/20 00:13:31;;;;;;;7.47;2.70;;;;;;;12.40;33.90;102163.97;5123419;28;20055;-67
2023/04/20 00:15:59;;;;;;;3.35;2.10;;;;;;;12.36;33.92;102160.03;5113438;28;20132;-67
2023/04/20 00:18:27;;;;;;;5.13;2.10;;;;;;;12.37;33.45;102153.59;5112252;28;20122;-67
2023/04/20 00:20:54;;;;;;;4.88;2.90;;;;;;;12.33;33.55;102155.88;5120829;28;20078;-67
2023/04/20 00:23:22;;;;;;;7.18;2.30;;;;;;;12.30;33.06;102152.75;5121690;28;20139;-66
2023/04/20 00:25:51;;;;;;;5.82;2.20;;;;;;;12.27;33.06;102150.44;5119135;28;20046;-66
2023/04/20 00:28:18;;;;;;;5.32;2.35;;;;;;;12.25;33.21;102139.84;5120353;28;20063;-67
2023/04/20 00:30:47;;;;;;;7.80;3.00;;;;;;;12.23;33.42;102128.44;5118794;28;20047;-67
2023/04/20 00:33:15;;;;;;;7.18;3.22;;;;;;;12.22;33.54;102134.88;5118119;28;20089;-67
2023/04/20 00:35:43;;;;;;;5.03;2.40;;;;;;;12.20;33.26;102128.84;5120758;28;20192;-68
2023/04/20 00:38:11;;;;;;;5.93;2.03;;;;;;;12.19;33.55;102126.34;5123917;28;20079;-68
2023/04/20 00:40:38;;;;;;;5.28;2.15;;;;;;;12.17;33.28;102121.16;5118133;28;20077;-67
2023/04/20 00:43:10;;;;;;;7.88;2.60;;;;;;;12.16;33.09;102121.38;5122719;28;20130;-68
2023/04/20 00:45:38;;;;;;;5.53;2.00;;;;;;;12.13;32.81;102114.56;5118668;28;20051;-67
2023/04/20 00:48:07;;;;;;;4.70;2.40;;;;;;;12.13;33.45;102113.72;5117462;28;20055;-67
2023/04/20 00:50:37;;;;;;;4.53;1.88;;;;;;;12.12;33.32;102110.19;5113701;28;20068;-67
2023/04/20 00:53:06;;;;;;;3.83;2.15;;;;;;;12.11;33.79;102110.41;5123079;28;20103;-67
2023/04/20 00:55:37;;;;;;;5.50;2.55;;;;;;;12.10;33.57;102104.19;5120481;28;20127;-67
2023/04/20 00:58:05;;;;;;;6.55;2.22;;;;;;;12.09;33.79;102099.81;5121918;28;20052;-68
2023/04/20 01:00:33;;;;;;;5.30;2.28;;;;;;;12.07;33.48;102091.09;5113286;28;20198;-66
2023/04/20 01:03:01;;;;;;;5.20;2.03;;;;;;;12.08;33.44;102089.25;5108938;28;20064;-67
2023/04/20 01:05:31;;;;;;;3.40;2.03;;;;;;;12.07;34.63;102082.19;5119036;28;20055;-66
2023/04/20 01:07:58;;;;;;;8.10;2.10;;;;;;;12.07;34.24;102083.00;5122997;28;20063;-67
2023/04/20 01:10:26;;;;;;;6.75;2.20;;;;;;;12.06;33.77;102075.97;5113729;28;20043;-66
2023/04/20 01:12:54;;;;;;;10.73;2.35;;;;;;;12.05;34.38;102075.13;5121131;28;20078;-68
2023/04/20 01:15:22;;;;;;;7.50;2.10;;;;;;;11.97;34.02;102055.63;5116018;28;20044;-67
2023/04/20 01:17:51;;;;;;;3.08;2.08;;;;;;;11.94;34.28;102056.84;5107252;28;20058;-67
2023/04/20 01:20:19;;;;;;;5.60;2.13;;;;;;;12.02;34.51;102063.94;5120044;28;20076;-67
2023/04/20 01:22:49;;;;;;;6.15;2.25;;;;;;;12.00;33.90;102066.00;5120798;28;20504;-66
2023/04/20 01:25:19;;;;;;;4.53;2.30;;;;;;;11.99;33.79;102059.78;5114844;28;20032;-67
2023/04/20 01:27:46;;;;;;;3.42;2.03;;;;;;;11.89;34.00;102045.84;5117610;28;20083;-67
2023/04/20 01:30:16;;;;;;;3.85;2.00;;;;;;;11.97;34.04;102055.63;5114525;28;20388;-67
2023/04/20 01:32:44;;;;;;;5.65;3.10;;;;;;;11.93;33.82;102051.66;5120420;28;20044;-67
2023/04/20 01:35:12;;;;;;;4.40;2.53;;;;;;;11.94;33.43;102047.94;5118064;28;20139;-67
2023/04/20 01:37:40;;;;;;;4.68;2.40;;;;;;;11.91;34.28;102046.47;5115172;28;20071;-67
2023/04/20 01:40:12;;;;;;;6.10;1.77;;;;;;;11.88;34.14;102035.28;5119244;28;20269;-66
2023/04/20 01:42:40;;;;;;;7.13;2.10;;;;;;;11.88;33.99;102032.59;5119529;28;20039;-67
2023/04/20 01:45:08;;;;;;;3.17;2.25;;;;;;;11.78;34.14;102021.34;5121061;28;20044;-67
2023/04/20 01:47:36;;;;;;;3.42;2.20;;;;;;;11.81;34.35;102018.25;5107015;28;20032;-66
2023/04/20 01:50:05;;;;;;;3.25;2.10;;;;;;;11.82;34.01;102020.75;5120496;28;20051;-65
2023/04/20 01:52:33;;;;;;;4.60;1.88;;;;;;;11.80;34.00;102022.81;5114286;28;20362;-67
2023/04/20 01:55:00;;;;;;;3.42;2.10;;;;;;;11.80;34.41;102016.59;5119647;28;20370;-67
2023/04/20 01:57:29;;;;;;;5.82;2.38;;;;;;;11.78;34.55;102003.31;5118453;28;20040;-66
2023/04/20 01:59:57;;;;;;;4.82;2.53;;;;;;;11.78;34.55;102002.50;5112652;28;20039;-65
2023/04/20 02:02:25;;;;;;;4.75;2.15;;;;;;;11.78;34.71;102003.31;5118131;28;20051;-67
2023/04/20 02:04:53;;;;;;;3.55;1.90;;;;;;;11.73;34.84;101992.28;5121443;28;20111;-67
2023/04/20 02:07:21;;;;;;;5.85;1.98;;;;;;;11.75;34.93;101998.31;5115543;28;20048;-66
2023/04/20 02:09:48;;;;;;;3.35;2.17;;;;;;;11.75;35.24;102001.00;5121194;28;20130;-67
2023/04/20 02:12:16;;;;;;;4.82;2.20;;;;;;;11.74;35.28;101991.25;5118606;28;20073;-67
2023/04/20 02:14:45;;;;;;;3.67;2.20;;;;;;;11.72;35.08;101987.94;5119905;28;20071;-67
2023/04/20 02:17:13;;;;;;;4.25;2.22;;;;;;;11.71;35.24;101991.66;5112957;28;20053;-67
2023/04/20 02:19:41;;;;;;;6.55;2.35;;;;;;;11.68;35.32;101981.28;5113653;28;21012;-66
2023/04/20 02:22:09;;;;;;;6.88;2.17;;;;;;;11.68;35.03;101984.81;5118357;28;20079;-66
2023/04/20 02:24:37;;;;;;;4.88;2.50;;;;;;;11.66;35.44;101984.19;5120099;28;20059;-66
2023/04/20 02:27:05;;;;;;;5.18;2.42;;;;;;;11.65;34.51;101979.84;5113033;28;20054;-67
2023/04/20 02:29:32;;;;;;;3.70;1.95;;;;;;;11.63;35.34;101981.91;5113100;28;20500;-67
2023/04/20 02:32:01;;;;;;;9.10;2.05;;;;;;;11.61;35.43;101977.75;5116848;28;20058;-66
2023/04/20 02:34:29;;;;;;;3.40;1.90;;;;;;;11.60;35.21;101970.69;5116711;28;20336;-66
2023/04/20 02:36:57;;;;;;;6.75;2.08;;;;;;;11.54;35.38;101971.50;5119233;28;20043;-66
2023/04/20 02:39:25;;;;;;;6.70;2.55;;;;;;;11.57;35.27;101973.78;5119710;28;20624;-68
2023/04/20 02:41:52;;;;;;;7.30;2.30;;;;;;;11.55;35.38;101965.09;5114381;28;20039;-67
2023/04/20 02:44:20;;;;;;;4.55;2.63;;;;;;;11.54;35.43;101972.34;5120070;28;20106;-66
2023/04/20 02:46:48;;;;;;;5.85;2.28;;;;;;;11.53;35.45;101970.69;5113676;28;20520;-67
2023/04/20 02:49:17;;;;;;;5.78;1.83;;;;;;;11.52;35.71;101963.63;5117888;28;20044;-66
2023/04/20 02:51:45;;;;;;;4.10;1.85;;;;;;;11.52;35.42;101947.47;5109330;28;20120;-66
2023/04/20 02:54:13;;;;;;;5.97;2.17;;;;;;;11.50;35.32;101949.53;5118196;28;20044;-66
2023/04/20 02:56:41;;;;;;;5.60;1.80;;;;;;;11.48;35.39;101948.91;5120070;28;20036;-66
2023/04/20 02:59:09;;;;;;;4.07;1.92;;;;;;;11.48;35.30;101953.47;5114549;28;20051;-67
2023/04/20 03:01:36;;;;;;;2.95;1.90;;;;;;;11.46;35.03;101956.34;5115946;28;20124;-67
2023/04/20 03:04:05;;;;;;;10.18;2.13;;;;;;;11.44;35.40;101954.88;5115920;28;20050;-67
2023/04/20 03:06:35;;;;;;;6.90;1.90;;;;;;;11.43;35.84;101950.53;5118583;28;20538;-67
2023/04/20 03:09:07;;;;;;;6.32;2.22;;;;;;;11.41;35.99;101943.50;5120414;28;20051;-67
2023/04/20 03:11:35;;;;;;;3.65;2.33;;;;;;;11.41;36.03;101940.81;5113458;28;20044;-67
2023/04/20 03:14:03;;;;;;;5.95;1.90;;;;;;;11.33;36.34;101913.22;5117997;28;20547;-67
2023/04/20 03:16:30;;;;;;;4.10;2.03;;;;;;;11.40;36.40;101922.16;5119381;28;20050;-67
2023/04/20 03:18:58;;;;;;;6.05;2.30;;;;;;;11.38;36.48;101914.28;5117595;28;20079;-66
2023/04/20 03:21:26;;;;;;;6.70;2.10;;;;;;;11.39;36.62;101913.25;5120356;28;20134;-66
2023/04/20 03:23:55;;;;;;;4.68;2.22;;;;;;;11.39;36.65;101912.44;5119946;28;20048;-67
2023/04/20 03:26:23;;;;;;;6.00;2.35;;;;;;;11.37;36.41;101914.50;5119551;28;20051;-67
2023/04/20 03:28:51;;;;;;;6.68;1.90;;;;;;;11.33;36.65;101908.69;5111735;28;20118;-66
2023/04/20 03:31:19;;;;;;;6.95;2.47;;;;;;;11.34;36.75;101909.50;5120205;28;20123;-67
2023/04/20 03:33:46;;;;;;;4.38;2.10;;;;;;;11.35;36.84;101913.84;5114598;28;20051;-67
2023/04/20 03:36:14;;;;;;;4.82;2.25;;;;;;;11.30;36.83;101906.38;5119566;28;20135;-66
2023/04/20 03:38:42;;;;;;;6.10;2.40;;;;;;;11.29;37.13;101903.91;5113680;28;20051;-68
2023/04/20 03:41:11;;;;;;;4.90;2.58;;;;;;;11.27;37.11;101908.66;5116313;28;20060;-66
2023/04/20 03:43:40;;;;;;;5.30;2.78;;;;;;;11.24;37.23;101896.44;5117034;28;20046;-66
2023/04/20 03:46:07;;;;;;;4.28;2.17;;;;;;;11.21;37.47;101888.75;5108945;28;20044;-67
2023/04/20 03:48:35;;;;;;;4.47;2.58;;;;;;;11.21;37.58;101894.13;5116621;28;20321;-67
2023/04/20 03:51:03;;;;;;;5.35;2.85;;;;;;;11.19;37.54;101896.19;5118765;28;20068;-67
2023/04/20 03:53:31;;;;;;;4.55;2.35;;;;;;;11.18;37.71;101896.41;5116183;28;20040;-67
2023/04/20 03:55:59;;;;;;;6.28;2.90;;;;;;;11.16;37.62;101893.06;5117926;28;20108;-67
2023/04/20 03:58:28;;;;;;;4.57;2.42;;;;;;;11.07;37.88;101881.66;5118842;28;20143;-67
2023/04/20 04:01:01;;;;;;;6.82;2.40;;;;;;;11.14;37.99;101882.50;5111726;28;20084;-67
2023/04/20 04:03:29;;;;;;;9.30;2.95;;;;;;;11.08;38.20;101877.94;5117902;28;21293;-67
2023/04/20 04:05:57;;;;;;;4.28;2.60;;;;;;;11.08;38.37;101894.06;5120133;28;20068;-67
2023/04/20 04:08:25;;;;;;;6.95;2.50;;;;;;;11.07;38.38;101887.03;5122183;28;20078;-67
2023/04/20 04:10:53;;;;;;;11.07;2.75;;;;;;;11.02;38.42;101881.41;5112058;28;20044;-67
2023/04/20 04:13:21;;;;;;;5.93;2.53;;;;;;;11.03;38.56;101881.22;5122783;28;20040;-66
2023/04/20 04:15:50;;;;;;;3.90;2.40;;;;;;;11.02;38.85;101879.56;5121432;28;20130;-67
2023/04/20 04:18:17;;;;;;;6.70;2.50;;;;;;;11.03;38.94;101864.25;5121105;28;20358;-66
2023/04/20 04:20:45;;;;;;;5.18;2.35;;;;;;;11.02;38.96;101865.28;5109258;28;20170;-67
2023/04/20 04:23:13;;;;;;;6.82;2.80;;;;;;;11.03;39.18;101872.31;5120939;28;20051;-67
2023/04/20 04:25:41;;;;;;;6.03;2.22;;;;;;;11.03;39.24;101861.56;5121163;28;20070;-67
2023/04/20 04:28:08;;;;;;;5.45;2.28;;;;;;;11.04;39.21;101863.22;5122250;28;20042;-66
2023/04/20 04:30:36;;;;;;;4.20;2.35;;;;;;;11.02;39.39;101849.97;5114490;28;20115;-67
2023/04/20 04:33:06;;;;;;;4.45;2.50;;;;;;;11.03;39.35;101853.50;5121042;28;20054;-66
2023/04/20 04:35:34;;;;;;;6.07;2.42;;;;;;;10.97;39.63;101838.97;5111025;28;20052;-67
2023/04/20 04:38:02;;;;;;;5.47;2.78;;;;;;;10.99;39.71;101839.63;5120828;28;20081;-66
2023/04/20 04:40:31;;;;;;;5.70;2.30;;;;;;;10.97;40.28;101838.16;5121564;28;20487;-66
2023/04/20 04:42:59;;;;;;;6.28;2.50;;;;;;;10.94;40.00;101834.00;5119443;28;20683;-66
2023/04/20 04:45:27;;;;;;;9.45;3.22;;;;;;;10.94;40.07;101836.69;5113641;28;20112;-66
2023/04/20 04:47:55;;;;;;;3.55;2.33;;;;;;;10.96;40.17;101831.13;5120892;28;20355;-66
2023/04/20 04:50:25;;;;;;;4.00;2.03;;;;;;;10.98;40.25;101837.13;5118736;28;21502;-67
2023/04/20 04:52:52;;;;;;;3.92;2.47;;;;;;;10.99;40.49;101834.22;5120612;28;20039;-67
2023/04/20 04:55:20;;;;;;;7.32;2.58;;;;;;;11.00;40.83;101832.38;5117100;28;20460;-68
2023/04/20 04:57:48;;;;;;;4.75;2.60;;;;;;;11.00;40.66;101843.13;5120612;28;20433;-67
2023/04/20 05:00:18;;;;;;;4.18;2.30;;;;;;;10.98;40.76;101845.19;5118007;28;20130;-66
2023/04/20 05:02:45;;;;;;;4.65;2.20;;;;;;;10.97;41.07;101836.28;5118382;28;20078;-67
2023/04/20 05:05:14;;;;;;;5.03;2.60;;;;;;;10.97;41.36;101832.78;5115758;28;20043;-67
2023/04/20 05:07:43;;;;;;;5.35;2.70;;;;;;;10.97;41.57;101832.78;5115228;28;20145;-69
2023/04/20 05:10:11;;;;;;;6.57;2.90;;;;;;;10.96;41.92;101837.31;5120202;28;20047;-67
2023/04/20 05:12:41;;;;;;;7.75;2.83;;;;;;;10.98;41.91;101839.81;5121121;28;20051;-67
2023/04/20 05:15:10;;;;;;;4.18;2.53;;;;;;;10.98;41.91;101832.56;5112382;28;20078;-67
2023/04/20 05:17:37;;;;;;;5.63;2.75;;;;;;;10.98;42.30;101832.56;5120713;28;20044;-65
2023/04/20 05:20:09;;;;;;;6.90;2.28;;;;;;;10.96;42.45;101831.94;5121167;28;20053;-66
2023/04/20 05:22:37;;;;;;;3.70;2.40;;;;;;;10.97;42.77;101830.09;5113692;28;20040;-66
2023/04/20 05:25:07;;;;;;;4.68;2.80;;;;;;;10.97;42.74;101827.38;5117032;28;20092;-67
2023/04/20 05:27:35;;;;;;;7.03;3.20;;;;;;;10.97;43.16;101833.59;5114729;28;20078;-67
2023/04/20 05:30:03;;;;;;;6.20;2.50;;;;;;;10.97;43.19;101840.84;5119936;28;20075;-66
2023/04/20 05:32:45;;;;;;;7.80;2.63;;;;;;;10.95;43.31;101837.53;5119784;28;20043;-67
2023/04/20 05:35:18;;;;;;;6.88;2.85;;;;;;;10.93;43.74;101829.66;5121777;28;20081;-67
2023/04/20 05:37:46;;;;;;;5.88;2.58;;;;;;;10.93;43.49;101829.66;5118760;28;20099;-65
2023/04/20 05:40:16;;;;;;;4.65;2.60;;;;;;;10.95;43.59;101832.97;5118618;28;20119;-65
2023/04/20 05:42:43;;;;;;;5.22;2.90;;;;;;;10.94;43.56;101830.47;5117918;28;20043;-70
2023/04/20 05:45:11;;;;;;;4.45;2.88;;;;;;;10.92;43.46;101832.53;5108662;28;20071;-66
2023/04/20 05:47:39;;;;;;;4.93;2.50;;;;;;;10.92;43.76;101828.00;5118320;28;20567;-70
2023/04/20 05:50:09;;;;;;;7.50;2.75;;;;;;;10.91;43.84;101823.66;5120965;28;20052;-69
2023/04/20 05:52:36;;;;;;;5.20;2.40;;;;;;;10.89;43.84;101819.50;4756382;28;10000381;-68
2023/04/20 05:55:05;;;;;;;6.00;3.25;;;;;;;10.89;43.93;101820.31;5117479;28;20071;-68
2023/04/20 05:57:40;;;;;;;6.22;2.65;;;;;;;10.85;43.84;101810.16;5113865;28;20050;-67
2023/04/20 06:00:10;;;;;;;5.45;2.55;;;;;;;10.87;44.00;101821.56;5112613;28;20035;-67
2023/04/20 06:02:38;;;;;;;5.80;3.30;;;;;;;10.84;44.25;101816.56;5114009;28;20138;-67
2023/04/20 06:05:08;;;;;;;4.78;2.92;;;;;;;10.84;45.23;101822.78;5114447;28;20039;-62
2023/04/20 06:07:36;;;;;;;6.70;2.85;;;;;;;10.62;45.12;101818.53;5114317;28;20097;-66
2023/04/20 06:10:05;;;;;;;7.18;2.80;;;;;;;10.58;45.01;101822.63;5117735;28;20416;-65
2023/04/20 06:12:34;;;;;;;11.98;3.13;;;;;;;10.62;44.84;101821.22;5113391;28;20075;-62
2023/04/20 06:15:03;;;;;;;6.10;2.65;;;;;;;10.66;45.20;101820.63;5111861;28;20050;-61
2023/04/20 06:17:31;;;;;;;4.53;2.45;;;;;;;10.66;44.92;101820.63;5119847;28;20381;-60
2023/04/20 06:19:59;;;;;;;4.88;2.33;;;;;;;10.71;44.74;101817.34;5118248;28;20063;-62
2023/04/20 06:22:26;;;;;;;7.25;2.65;;;;;;;10.74;44.78;101807.00;5120232;28;20092;-63
2023/04/20 06:24:54;;;;;;;6.72;2.75;;;;;;;10.77;44.61;101814.69;5121980;28;20074;-62
2023/04/20 06:27:22;;;;;;;4.20;2.25;;;;;;;10.78;44.65;101799.38;5118862;28;20679;-63
2023/04/20 06:29:51;;;;;;;8.18;2.75;;;;;;;10.79;44.48;101805.59;5119036;28;20118;-63
2023/04/20 06:32:19;;;;;;;7.35;2.78;;;;;;;10.79;44.55;101802.91;5112763;27;20475;-62
2023/04/20 06:34:47;;;;;;;7.03;2.90;;;;;;;10.77;44.56;101806.63;5120717;28;20056;-62
2023/04/20 06:37:15;;;;;;;4.68;2.63;;;;;;;10.76;44.64;101802.28;5120516;28;20074;-62
2023/04/20 06:39:42;;;;;;;8.70;2.78;;;;;;;10.78;44.86;101802.06;5120904;28;20103;-62
2023/04/20 06:42:10;;;;;;;5.85;2.60;;;;;;;10.75;44.70;101805.16;5118321;28;20051;-69
2023/04/20 06:44:38;;;;;;;6.90;2.60;;;;;;;10.75;44.96;101797.09;5115219;28;20126;-63
2023/04/20 06:47:07;;;;;;;9.63;2.80;;;;;;;10.75;45.26;101787.16;5109598;28;20264;-63
2023/04/20 06:49:36;;;;;;;8.23;3.10;;;;;;;10.77;44.89;101790.47;5119349;28;20357;-63
2023/04/20 06:52:04;;;;;;;5.18;3.17;;;;;;;10.77;45.13;101789.66;5116259;28;20535;-63
2023/04/20 06:54:32;;;;;;;5.22;2.67;;;;;;;10.77;45.03;101779.72;5111991;28;20060;-63
2023/04/20 06:57:00;;;;;;;5.68;2.70;;;;;;;10.79;44.93;101795.66;5112847;28;20131;-64
2023/04/20 06:59:27;;;;;;;9.32;3.92;;;;;;;10.76;45.14;101796.06;5119813;28;20088;-62
2023/04/20 07:01:55;;;;;;;7.10;2.50;;;;;;;10.78;45.07;101791.31;5116230;28;20062;-63
2023/04/20 07:04:24;;;;;;;4.32;2.92;;;;;;;10.77;45.28;101789.66;5114247;28;20051;-62
2023/04/20 07:06:52;;;;;;;5.15;2.83;;;;;;;10.77;44.97;101795.03;5114290;28;20329;-63
2023/04/20 07:09:21;;;;;;;5.20;2.75;;;;;;;10.77;45.32;101787.78;5113667;28;20067;-63
2023/04/20 07:11:49;;;;;;;5.05;3.22;;;;;;;10.74;45.36;101798.13;5108556;28;20354;-63
2023/04/20 07:14:17;;;;;;;4.20;3.08;;;;;;;10.72;45.51;101784.88;5120212;28;20075;-62
2023/04/20 07:16:45;;;;;;;4.95;2.85;;;;;;;10.74;45.58;101790.06;5110268;28;20043;-64
2023/04/20 07:19:12;;;;;;;5.85;3.55;;;;;;;10.75;45.61;101783.66;5117358;28;20369;-61
2023/04/20 07:21:41;;;;;;;7.22;2.72;;;;;;;10.69;45.93;101784.44;5116801;28;20044;-62
2023/04/20 07:24:09;;;;;;;5.75;3.05;;;;;;;10.67;46.21;101794.56;5120780;28;20075;-64
2023/04/20 07:26:37;;;;;;;5.75;2.47;;;;;;;10.66;46.16;101795.59;5120201;28;20075;-62
2023/04/20 07:29:05;;;;;;;4.32;2.33;;;;;;;10.65;46.13;101792.06;5118193;28;20039;-62
2023/04/20 07:31:33;;;;;;;5.57;3.17;;;;;;;10.68;46.07;101790.84;5120256;28;20111;-62
2023/04/20 07:34:02;;;;;;;8.73;2.75;;;;;;;10.67;46.41;101798.09;5119528;28;20055;-62
2023/04/20 07:36:30;;;;;;;6.93;2.80;;;;;;;10.68;46.14;101794.38;5116226;28;20044;-63
2023/04/20 07:38:59;;;;;;;4.15;2.88;;;;;;;10.69;46.04;101795.19;5120640;28;20104;-63
2023/04/20 07:41:26;;;;;;;7.50;2.85;;;;;;;10.71;45.97;101793.13;5122525;28;20078;-63
2023/04/20 07:43:54;;;;;;;6.03;3.00;;;;;;;10.67;45.98;101787.34;5122549;28;20127;-63
2023/04/20 07:46:22;;;;;;;5.45;2.67;;;;;;;10.66;46.23;101792.91;5120040;28;20039;-62
2023/04/20 07:48:50;;;;;;;5.03;3.00;;;;;;;10.62;46.45;101788.97;5124108;28;20043;-63
2023/04/20 07:51:18;;;;;;;3.90;2.83;;;;;;;10.56;46.52;101779.84;5121829;28;20115;-63
2023/04/20 07:53:46;;;;;;;5.07;2.78;;;;;;;10.59;46.77;101789.34;5111610;28;20075;-63
2023/04/20 07:56:16;;;;;;;3.80;2.60;;;;;;;10.60;46.51;101791.00;5118903;28;20079;-63
2023/04/20 07:58:43;;;;;;;6.85;2.70;;;;;;;10.63;46.69;101793.31;5123802;28;20082;-63
2023/04/20 08:01:11;;;;;;;3.85;2.33;;;;;;;10.64;46.66;101787.72;5120133;28;20099;-62
2023/04/20 08:03:40;;;;;;;3.80;2.58;;;;;;;10.75;46.56;101789.03;5122253;28;20222;-62
2023/04/20 08:06:09;;;;;;;5.80;2.75;;;;;;;10.92;46.02;101782.28;5121161;28;20075;-62
2023/04/20 08:08:37;;;;;;;6.35;2.65;;;;;;;11.07;45.63;101782.94;5123335;28;20099;-64
2023/04/20 08:11:06;;;;;;;4.93;2.40;;;;;;;11.21;45.36;101772.22;5123676;28;20072;-63
2023/04/20 08:13:36;;;;;;;3.80;2.65;;;;;;;11.38;44.97;101770.81;5123495;28;20122;-63
2023/04/20 08:16:04;;;;;;;6.28;2.42;;;;;;;11.56;44.65;101770.22;5122260;28;20134;-63
2023/04/20 08:18:32;;;;;;;5.07;2.47;;;;;;;11.76;43.93;101762.16;5121015;28;20532;-63
2023/04/20 08:21:00;;;;;;;5.30;2.22;;;;;;;11.95;43.69;101761.34;5112037;28;20049;-63
2023/04/20 08:23:28;;;;;;;6.07;2.13;;;;;;;12.14;43.16;101759.63;5120903;28;20083;-63
2023/04/20 08:25:56;;;;;;;3.85;2.22;;;;;;;12.24;42.88;101760.03;5120776;28;20429;-63
2023/04/20 08:28:24;;;;;;;3.70;2.20;;;;;;;12.16;42.80;101757.56;5121023;28;20082;-63
2023/04/20 08:30:57;;;;;;;9.30;2.20;;;;;;;12.07;43.58;101754.28;5123924;28;20127;-63
2023/04/20 08:33:25;;;;;;;4.68;2.30;;;;;;;11.90;43.58;101747.66;5123053;28;20052;-63
2023/04/20 08:35:53;;;;;;;5.85;2.00;;;;;;;11.80;44.10;101755.34;5118665;28;20078;-63
2023/04/20 08:38:21;;;;;;;3.85;2.13;;;;;;;11.68;44.32;101758.63;5112308;28;20138;-64
2023/04/20 08:41:00;;;;;;;3.85;2.15;;;;;;;11.50;44.85;101761.09;5119095;28;20248;-62
2023/04/20 08:43:28;;;;;;;4.03;2.20;;;;;;;11.45;45.04;101750.13;5120049;28;20071;-62
2023/04/20 08:46:00;;;;;;;4.75;2.10;;;;;;;11.41;45.36;101747.00;5122194;28;20062;-62
2023/04/20 08:48:33;;;;;;;5.80;2.63;;;;;;;11.34;45.34;101743.47;5122568;28;20048;-63
2023/04/20 08:51:01;;;;;;;4.70;2.55;;;;;;;11.23;45.72;101744.06;5119465;28;20044;-63
2023/04/20 08:53:29;;;;;;;4.35;2.53;;;;;;;11.21;45.86;101746.16;5122011;27;20044;-63
2023/04/20 08:55:57;;;;;;;7.50;2.80;;;;;;;11.21;46.19;101739.94;5120840;28;20256;-62
2023/04/20 08:58:28;;;;;;;4.10;2.30;;;;;;;11.13;45.85;101730.19;5110169;28;20361;-62
2023/04/20 09:00:56;;;;;;;5.25;2.40;;;;;;;11.17;46.04;101744.88;5122206;28;20059;-62
2023/04/20 09:03:33;;;;;;;3.90;2.17;;;;;;;11.17;46.05;101736.81;5109534;28;20340;-63
2023/04/20 09:06:01;;;;;;;3.42;1.98;;;;;;;11.16;46.23;101731.66;5109633;28;20048;-61
2023/04/20 09:08:35;;;;;;;3.22;2.20;;;;;;;11.10;46.60;101725.22;5108990;28;20080;-62
2023/04/20 09:11:03;;;;;;;3.75;2.38;;;;;;;11.17;46.41;101734.13;5122557;28;20044;-62
2023/04/20 09:13:30;;;;;;;3.58;1.95;;;;;;;11.19;46.28;101732.06;5121569;28;20119;-63
2023/04/20 09:16:09;;;;;;;5.22;2.20;;;;;;;11.19;46.38;101733.94;5114283;28;20502;-63
2023/04/20 09:18:38;;;;;;;3.33;2.22;;;;;;;11.17;46.56;101739.50;5121505;28;20051;-63
2023/04/20 09:21:09;;;;;;;4.65;2.85;;;;;;;11.18;46.78;101737.66;5119298;28;20134;-62
2023/04/20 09:23:37;;;;;;;3.78;2.33;;;;;;;11.17;46.54;101731.44;5120691;28;20039;-62
2023/04/20 09:26:05;;;;;;;5.45;2.75;;;;;;;11.15;46.73;101732.69;5122284;28;20071;-62
2023/04/20 09:28:38;;;;;;;6.57;2.38;;;;;;;11.10;46.73;101725.22;5117411;28;20048;-62
2023/04/20 09:31:06;;;;;;;4.78;2.42;;;;;;;11.08;46.87;101736.19;5115302;28;20054;-63
2023/04/20 09:33:35;;;;;;;5.25;2.15;;;;;;;11.06;47.04;101730.19;5115198;28;20068;-63
2023/04/20 09:36:05;;;;;;;2.42;1.90;;;;;;;11.05;46.87;101723.13;5114267;28;20055;-63
2023/04/20 09:38:33;;;;;;;3.30;2.00;;;;;;;11.04;46.90;101732.25;5120267;28;20112;-63
2023/04/20 09:41:01;;;;;;;3.50;1.85;;;;;;;11.07;46.95;101725.63;5116848;28;20084;-63
2023/04/20 09:43:30;;;;;;;4.82;2.30;;;;;;;11.06;46.52;101729.34;5122557;28;20108;-63
2023/04/20 09:45:59;;;;;;;3.97;2.00;;;;;;;11.03;46.83;101721.69;5121647;28;20477;-62
2023/04/20 09:48:27;;;;;;;4.88;2.15;;;;;;;11.04;46.91;101716.09;5119109;28;20455;-62
2023/04/20 09:50:57;;;;;;;7.90;2.42;;;;;;;11.04;46.88;101708.03;5120863;28;20048;-62
2023/04/20 09:53:26;;;;;;;3.50;1.88;;;;;;;11.06;46.90;101700.59;5119792;28;20134;-62
2023/04/20 09:55:55;;;;;;;3.95;2.22;;;;;;;11.10;46.68;101701.00;5118758;28;20047;-62
2023/04/20 09:58:22;;;;;;;2.53;2.17;;;;;;;11.11;46.84;101689.22;5120046;28;20135;-62
2023/04/20 10:00:50;;;;;;;4.22;1.90;;;;;;;11.13;46.82;101687.16;5116544;28;20042;-62
2023/04/20 10:03:20;;;;;;;4.68;1.90;;;;;;;11.15;46.83;101690.47;5116285;28;20048;-62
2023/04/20 10:05:48;;;;;;;6.55;2.33;;;;;;;11.19;46.86;101680.94;5118790;28;20564;-62
2023/04/20 10:08:20;;;;;;;7.32;2.10;;;;;;;11.21;46.72;101683.44;5113942;28;20044;-62
2023/04/20 10:10:51;;;;;;;3.38;1.88;;;;;;;11.21;46.73;101680.75;5120481;28;20142;-62
2023/04/20 10:13:20;;;;;;;4.22;2.25;;;;;;;11.20;46.81;101681.78;5122217;28;20104;-62
2023/04/20 10:15:48;;;;;;;3.05;2.00;;;;;;;11.19;46.61;101680.94;5118362;28;20078;-62
2023/04/20 10:18:18;;;;;;;4.57;2.17;;;;;;;11.19;46.58;101674.72;5121242;28;20039;-62
2023/04/20 10:20:46;;;;;;;4.38;1.90;;;;;;;11.21;46.66;101673.50;5113466;28;20094;-63
2023/04/20 10:23:17;;;;;;;4.43;1.83;;;;;;;11.22;46.61;101682.41;5120129;28;20111;-63
2023/04/20 10:25:57;;;;;;;3.75;1.88;;;;;;;11.22;46.18;101677.84;5120775;28;20551;-63
2023/04/20 10:28:25;;;;;;;4.38;2.13;;;;;;;11.23;46.48;101675.97;5122069;28;20043;-63
2023/04/20 10:30:53;;;;;;;4.40;2.50;;;;;;;11.25;46.40;101679.28;5116773;28;20115;-63
2023/04/20 10:33:21;;;;;;;3.80;2.05;;;;;;;11.26;46.52;101687.16;5121880;28;20111;-62
2023/04/20 10:35:53;;;;;;;3.50;2.13;;;;;;;11.21;46.46;101676.19;5116032;28;20115;-62
2023/04/20 10:38:31;;;;;;;4.60;2.05;;;;;;;11.21;46.63;101681.56;5122660;28;20096;-62
2023/04/20 10:41:07;;;;;;;4.97;1.90;;;;;;;11.18;46.63;101665.84;5117593;28;20955;-63
2023/04/20 10:43:37;;;;;;;8.68;2.92;;;;;;;11.18;46.76;101667.69;5119399;28;20485;-61
2023/04/20 10:46:13;;;;;;;7.40;2.53;;;;;;;11.20;46.56;101665.63;5120605;28;20111;-63
2023/04/20 10:48:50;;;;;;;4.88;2.15;;;;;;;11.17;47.09;101663.34;5118756;28;20051;-63
2023/04/20 10:51:17;;;;;;;2.28;1.90;;;;;;;11.27;46.92;101658.38;5117264;28;20047;-64
2023/04/20 10:53:45;;;;;;;9.38;2.20;;;;;;;11.42;46.69;101659.00;5121217;28;20131;-64
2023/04/20 10:56:14;;;;;;;4.50;2.13;;;;;;;11.61;46.08;101662.72;5107027;28;20103;-64
2023/04/20 10:58:42;;;;;;;4.70;2.45;;;;;;;11.63;45.68;101639.13;4766760;28;10000485;-64
2023/04/20 11:01:10;;;;;;;4.82;2.72;;;;;;;11.82;45.42;101653.63;5113330;28;20132;-64
2023/04/20 11:03:38;;;;;;;4.82;2.40;;;;;;;12.01;45.04;101658.97;5117598;28;20081;-64
2023/04/20 11:06:06;;;;;;;3.63;1.90;;;;;;;12.20;44.65;101659.09;5110360;28;20146;-63
2023/04/20 11:08:38;;;;;;;5.05;1.95;;;;;;;12.44;44.14;101655.66;5117442;28;20047;-64
2023/04/20 11:11:17;;;;;;;4.05;2.40;;;;;;;12.69;43.54;101644.97;5111177;28;20101;-65
2023/04/20 11:13:46;;;;;;;4.05;2.30;;;;;;;12.92;43.21;101650.63;5121833;28;20159;-64
2023/04/20 11:16:15;;;;;;;4.75;2.00;;;;;;;13.12;42.33;101647.78;5112863;28;20059;-64
2023/04/20 11:18:50;;;;;;;6.53;2.33;;;;;;;13.25;42.28;101638.81;5119531;28;20523;-64
2023/04/20 11:21:18;;;;;;;3.95;2.00;;;;;;;13.24;42.38;101623.66;5115332;28;20043;-64
2023/04/20 11:23:46;;;;;;;4.15;2.67;;;;;;;13.32;42.45;101636.88;5113824;28;20093;-65
2023/04/20 11:26:14;;;;;;;8.30;2.90;;;;;;;13.24;42.42;101631.75;5120592;28;20050;-65
2023/04/20 11:28:54;;;;;;;8.25;2.60;;;;;;;13.26;42.55;101627.78;5111146;28;20067;-64
2023/04/20 11:31:24;;;;;;;4.78;3.13;;;;;;;13.14;42.75;101631.38;5111242;28;20090;-64